Atwell, West Virginia
Current Conditions -  °F | °C
As of 7:35 AM on Monday 26 Jan 2015 (Local Time) from KJFZ Reporting Station
Light Rain Light Rain  
Wind Chill:   Ceiling: 700
Heat Index:   Visibility: 7mi
Dew Point:   Wind: 5mph
Humidity: 91%   Direction: 240°WSW
Pressure: 29.62"   Gusts: NA
Location:  37.3433°N, 81.7826°W
Report Text: KJFZ 261235Z AUTO 24004KT 7SM -RA BKN007 BKN011 OVC022 03/01 A2962 RMK AO2 P0001 T00250011
Loading
Personal Weather Stations






























Interactive Weather Map New forecast layout! Learn more

10-Day Weather Forecast

Advertisements
Track Severe Weather on mobile